logo
Search for airport 
image banner adimage banner adimage banner ad
image banner ad

HLBU - Al Bumbah North Airbase

Located in Bombah, Libyan Arab Jamahiriya

ICAO - , IATA -

Data provided by Airmate  

General information

Coordinates: N32°27'11" E23°7'7"
Elevation is 33 feet MSL.
Magnetic variation is 4° East
View others Airports in Darnah District

Operational data

Special qualification required
Current time UTC:
Current local time:
Weather at : - ( 0 km )
METAR: ZMUB 251700Z 35004MPS 9999 FEW030CB BKN033 15/12 Q1009 NOSIG RMK QFE650.4 84 NT
View NOTAMs / SUP AIP / TFR affecting this airport [VIEW]
Communications frequencies: [VIEW]

Runways:

RWY identifierQFULength (ft)Width (ft)SurfaceLDA (ft)
14142°11603158ASPH
32322°11603158ASPH

Airport contact information

Address: Bombah Libyan Arab Jamahiriya

Satellite view of HLBU